Windsor, ME (04363)

8:24 AM EDT on September 27, 2016 (GMT -0400)
Country road in Coopers Mills Maine weather station on tower at 30 feet | | Change Station

Elev 184 ft 44.26 °N, 69.56 °W | Updated 14 minutes ago

Light Rain
Light Rain Mist
53.6 °F
Feels Like 53.6 °F
N
1.7
Wind Variable Wind from NNE

Today
High -- | Low -- °F
--% Chance of Precip.
Yesterday
High -- | Low -- °F
Precip. -- in
Pressure 29.91 in
Visibility 4.0 miles
Clouds Mostly Cloudy 400 ft
Mostly Cloudy 3700 ft
Overcast 6000 ft
Dew Point 50 °F
Humidity 89%
Rainfall 0.14 in
Snow Depth Not available.
6:31 AM 6:25 PM
Waning Crescent, 12% visible
METAR KAUG 271153Z AUTO 00000KT 4SM -RA BR BKN004 BKN037 OVC060 12/11 A2991 RMK AO2 SLP129 P0013 60019 70019 T01170111 10122 20100 50002
Pressure 29.91 in
Visibility 4.0 miles
Clouds Mostly Cloudy 400 ft
Mostly Cloudy 3700 ft
Overcast 6000 ft
Dew Point 50 °F
Humidity 89%
Rainfall 0.14 in
Snow Depth Not available.
6:31 AM 6:25 PM
Waning Crescent, 12% visible
METAR KAUG 271153Z AUTO 00000KT 4SM -RA BR BKN004 BKN037 OVC060 12/11 A2991 RMK AO2 SLP129 P0013 60019 70019 T01170111 10122 20100 50002

10-Day Weather Forecast

Almanac

Astronomy

Sep. 27, 2016 Rise Set
Actual Time
Civil Twilight
Nautical Twilight
Astronomical Twilight
Moon
Length of Visible Light
Length of Day
Tomorrow will be .
, % of the Moon is Illuminated

Today's Extremes

State Highs State Lows

Community

WunderPhotos

Upload Photos

1,942,069 photos uploaded!

WunderBlog® & News

Nearby

Air Quality

  Air Quality AQ Index Pollutant
Not available.

Snow Depth

Station Depth Elevation

Earthquake Activity

City Distance Mag. Time & Date
Minimum magnitude displayed is 2.5.

Coastal Water Temperatures

Place Temperature

Stations

Nearby Weather Stations

Station Location Temp. Windchill Dew Point Humidity Wind Precip. Elev Updated Type
                   

Watches & Warnings

There are currently no watches in effect.